createdAt,value
2023-04-26T00:01:27.864Z,9.10
2023-04-26T00:03:57.805Z,8.83
2023-04-26T00:06:28.688Z,5.83
2023-04-26T00:08:57.875Z,6.57
2023-04-26T00:11:27.278Z,5.13
2023-04-26T00:13:56.852Z,8.33
2023-04-26T00:16:26.368Z,5.70
2023-04-26T00:18:56.786Z,5.23
2023-04-26T00:21:27.403Z,4.67
2023-04-26T00:23:56.782Z,4.07
2023-04-26T00:26:26.192Z,3.57
2023-04-26T00:28:55.394Z,3.83
2023-04-26T00:31:24.851Z,2.63
2023-04-26T00:33:54.355Z,2.13
2023-04-26T00:36:23.862Z,4.63
2023-04-26T00:38:54.872Z,2.73
2023-04-26T00:41:24.586Z,3.73
2023-04-26T00:43:54.097Z,4.80
2023-04-26T00:46:24.098Z,4.83
2023-04-26T00:48:54.136Z,2.43
2023-04-26T00:51:23.781Z,3.47
2023-04-26T00:53:55.152Z,3.40
2023-04-26T00:56:26.633Z,3.63
2023-04-26T00:58:55.899Z,3.03
2023-04-26T01:01:25.200Z,2.90
2023-04-26T01:03:54.722Z,3.33
2023-04-26T01:06:24.693Z,5.80
2023-04-26T01:08:58.852Z,2.57
2023-04-26T01:11:28.293Z,3.80
2023-04-26T01:14:00.171Z,3.10
2023-04-26T01:16:30.389Z,3.43
2023-04-26T01:18:59.715Z,4.53
2023-04-26T01:21:29.213Z,3.30
2023-04-26T01:23:59.863Z,2.83
2023-04-26T01:26:29.170Z,3.57
2023-04-26T01:28:58.481Z,2.53
2023-04-26T01:31:27.977Z,2.87
2023-04-26T01:33:57.650Z,3.53
2023-04-26T01:36:27.314Z,2.83
2023-04-26T01:38:56.810Z,2.93
2023-04-26T01:41:27.520Z,2.87
2023-04-26T01:43:56.974Z,2.83
2023-04-26T01:46:28.911Z,2.83
2023-04-26T01:48:58.666Z,3.47
2023-04-26T01:51:28.165Z,3.57
2023-04-26T01:53:57.406Z,4.13
2023-04-26T01:56:28.986Z,3.63
2023-04-26T01:58:59.433Z,2.93
2023-04-26T02:01:28.850Z,4.30
2023-04-26T02:03:58.353Z,3.23
2023-04-26T02:06:28.267Z,2.87
2023-04-26T02:08:58.303Z,4.23
2023-04-26T02:11:29.084Z,2.60
2023-04-26T02:13:58.330Z,4.13
2023-04-26T02:16:27.723Z,2.83
2023-04-26T02:18:56.938Z,3.93
2023-04-26T02:21:27.288Z,3.93
2023-04-26T02:23:56.586Z,3.23
2023-04-26T02:26:27.976Z,4.00
2023-04-26T02:28:57.380Z,3.07
2023-04-26T02:31:28.229Z,3.57
2023-04-26T02:33:57.562Z,4.83
2023-04-26T02:36:27.598Z,4.20
2023-04-26T02:38:57.833Z,4.23
2023-04-26T02:41:28.617Z,3.50
2023-04-26T02:43:58.481Z,4.10
2023-04-26T02:46:28.158Z,4.20
2023-04-26T02:48:57.442Z,5.00
2023-04-26T02:51:27.387Z,4.67
2023-04-26T02:53:56.710Z,4.33
2023-04-26T02:56:28.455Z,5.00
2023-04-26T02:58:57.875Z,5.57
2023-04-26T03:01:27.263Z,3.10
2023-04-26T03:03:59.774Z,5.37
2023-04-26T03:06:30.158Z,3.43
2023-04-26T03:08:59.478Z,4.93
2023-04-26T03:11:30.332Z,3.80
2023-04-26T03:13:59.694Z,6.33
2023-04-26T03:16:30.059Z,6.53
2023-04-26T03:18:59.347Z,5.57
2023-04-26T03:21:28.716Z,8.60
2023-04-26T03:23:58.216Z,6.87
2023-04-26T03:26:27.603Z,7.27
2023-04-26T03:28:58.402Z,9.40
2023-04-26T03:31:27.862Z,9.53
2023-04-26T03:33:57.358Z,10.00
2023-04-26T03:36:29.078Z,7.27
2023-04-26T03:39:00.016Z,11.03
2023-04-26T03:41:31.029Z,10.57
2023-04-26T03:44:06.916Z,11.83
2023-04-26T03:46:36.959Z,11.50
2023-04-26T03:49:06.437Z,11.60
2023-04-26T03:51:35.919Z,9.53
2023-04-26T03:54:05.600Z,10.97
2023-04-26T03:56:35.171Z,10.17
2023-04-26T03:59:05.881Z,9.30
2023-04-26T04:01:35.240Z,13.07
2023-04-26T04:04:04.785Z,10.60
2023-04-26T04:06:34.418Z,9.93
2023-04-26T04:09:04.766Z,10.10
2023-04-26T04:11:34.938Z,10.90
2023-04-26T04:14:05.973Z,8.57
2023-04-26T04:16:35.739Z,10.37
2023-04-26T04:19:05.490Z,9.10
2023-04-26T04:21:35.261Z,9.63
2023-04-26T04:24:05.954Z,9.10
2023-04-26T04:26:35.740Z,11.87
2023-04-26T04:29:10.056Z,7.87
2023-04-26T04:31:42.101Z,8.30
2023-04-26T04:34:12.104Z,8.30
2023-04-26T04:36:43.771Z,8.77
2023-04-26T04:39:16.373Z,8.40
2023-04-26T04:41:48.490Z,8.13
2023-04-26T04:44:21.038Z,8.93
2023-04-26T04:46:50.325Z,8.38
2023-04-26T04:49:20.096Z,7.30
2023-04-26T04:51:50.029Z,5.45
2023-04-26T04:54:20.689Z,9.05
2023-04-26T04:56:50.385Z,9.00
2023-04-26T04:59:21.788Z,6.68
2023-04-26T05:01:51.441Z,7.47
2023-04-26T05:04:21.588Z,7.55
2023-04-26T05:06:51.422Z,7.78
2023-04-26T05:09:21.248Z,6.50
2023-04-26T05:11:50.549Z,7.50
2023-04-26T05:14:21.263Z,7.65
2023-04-26T05:16:50.692Z,7.03
2023-04-26T05:19:19.874Z,7.60
2023-04-26T05:21:49.169Z,6.60
2023-04-26T05:24:19.552Z,6.50
2023-04-26T05:26:49.372Z,8.60
2023-04-26T05:29:32.599Z,7.80
2023-04-26T05:32:11.736Z,8.35
2023-04-26T05:35:16.601Z,6.97
2023-04-26T05:37:46.155Z,9.55
2023-04-26T05:40:16.899Z,7.18
2023-04-26T05:42:47.260Z,7.45
2023-04-26T05:45:18.055Z,9.23
2023-04-26T05:47:48.588Z,16.05
2023-04-26T05:50:18.049Z,7.72
2023-04-26T05:52:47.407Z,7.85
2023-04-26T05:55:16.733Z,9.65
2023-04-26T05:57:45.962Z,7.63
2023-04-26T06:00:20.370Z,8.07
2023-04-26T06:02:50.547Z,8.02
2023-04-26T06:05:20.897Z,6.80
2023-04-26T06:07:50.279Z,7.50
2023-04-26T06:10:20.273Z,8.68
2023-04-26T06:12:49.635Z,6.13
2023-04-26T06:15:21.923Z,8.55
2023-04-26T06:17:59.079Z,5.65
2023-04-26T06:20:28.701Z,5.72
2023-04-26T06:22:58.215Z,6.55
2023-04-26T06:25:27.455Z,6.85
2023-04-26T06:27:56.865Z,4.80
2023-04-26T06:30:27.792Z,5.43
2023-04-26T06:32:59.308Z,8.68
2023-04-26T06:35:34.721Z,6.57
2023-04-26T06:38:04.938Z,6.93
2023-04-26T06:40:34.097Z,7.57
2023-04-26T06:43:04.050Z,5.15
2023-04-26T06:45:44.173Z,6.82
2023-04-26T06:48:14.452Z,6.40
2023-04-26T06:50:43.921Z,6.45
2023-04-26T06:53:13.354Z,6.22
2023-04-26T06:55:42.678Z,7.07
2023-04-26T06:58:12.330Z,8.95
2023-04-26T07:00:41.689Z,5.03
2023-04-26T07:03:12.595Z,4.50
2023-04-26T07:05:42.044Z,7.20
2023-04-26T07:08:12.112Z,8.27
2023-04-26T07:10:41.755Z,6.35
2023-04-26T07:13:11.109Z,8.38
2023-04-26T07:15:40.457Z,5.43
2023-04-26T07:18:10.202Z,6.15
2023-04-26T07:20:41.001Z,5.65
2023-04-26T07:23:10.442Z,5.75
2023-04-26T07:25:39.891Z,7.22
2023-04-26T07:28:09.507Z,9.80
2023-04-26T07:30:38.908Z,8.75
2023-04-26T07:33:13.475Z,4.28
2023-04-26T07:35:45.138Z,4.88
2023-04-26T07:38:19.860Z,5.63
2023-04-26T07:40:49.418Z,5.40
2023-04-26T07:43:19.007Z,6.13
2023-04-26T07:45:48.508Z,6.38
2023-04-26T07:48:18.554Z,4.75
2023-04-26T07:50:49.672Z,4.45
2023-04-26T07:53:18.971Z,8.40
2023-04-26T07:55:48.325Z,5.15
2023-04-26T07:58:18.040Z,4.82
2023-04-26T08:00:47.337Z,5.30
2023-04-26T08:03:18.342Z,5.33
2023-04-26T08:05:49.995Z,5.83
2023-04-26T08:08:19.470Z,6.93
2023-04-26T08:10:48.788Z,5.07
2023-04-26T08:13:18.155Z,6.53
2023-04-26T08:15:49.351Z,5.20
2023-04-26T08:18:18.570Z,4.93
2023-04-26T08:20:49.510Z,6.17
2023-04-26T08:23:19.885Z,10.07
2023-04-26T08:25:49.979Z,10.10
2023-04-26T08:28:19.455Z,5.83
2023-04-26T08:30:49.367Z,6.53
2023-04-26T08:33:20.415Z,4.17
2023-04-26T08:35:51.222Z,8.03
2023-04-26T08:38:22.858Z,4.70
2023-04-26T08:40:53.730Z,5.40
2023-04-26T08:43:23.475Z,4.83
2023-04-26T08:45:53.184Z,6.77
2023-04-26T08:48:22.763Z,5.93
2023-04-26T08:50:55.525Z,4.23
2023-04-26T08:53:26.237Z,6.20
2023-04-26T08:55:56.447Z,3.63
2023-04-26T08:58:26.050Z,5.67
2023-04-26T09:00:55.772Z,5.27
2023-04-26T09:03:26.713Z,5.77
2023-04-26T09:05:58.027Z,4.27
2023-04-26T09:08:28.518Z,4.00
2023-04-26T09:10:57.853Z,4.60
2023-04-26T09:13:30.872Z,6.60
2023-04-26T09:16:01.830Z,6.07
2023-04-26T09:18:34.209Z,5.03
2023-04-26T09:21:07.334Z,5.00
2023-04-26T09:23:36.898Z,7.57
2023-04-26T09:26:21.187Z,6.67
2023-04-26T09:28:51.270Z,4.07
2023-04-26T09:31:39.738Z,4.50
2023-04-26T09:34:10.169Z,5.37
2023-04-26T09:36:52.172Z,7.50
2023-04-26T09:39:35.781Z,8.97
2023-04-26T09:42:05.908Z,5.57
2023-04-26T09:44:35.652Z,6.83
2023-04-26T09:47:07.044Z,3.57
2023-04-26T09:49:46.990Z,5.93
2023-04-26T09:52:18.744Z,5.03
2023-04-26T09:54:50.179Z,4.77
2023-04-26T09:57:22.489Z,7.37
2023-04-26T09:59:55.345Z,5.57
2023-04-26T10:02:27.497Z,6.87
2023-04-26T10:05:00.541Z,5.27
2023-04-26T10:07:32.231Z,6.10
2023-04-26T10:10:01.627Z,3.83
2023-04-26T10:12:31.023Z,6.43
2023-04-26T10:15:00.453Z,5.17
2023-04-26T10:17:29.837Z,3.30
2023-04-26T10:20:01.756Z,4.63
2023-04-26T10:22:36.989Z,4.37
2023-04-26T10:25:09.519Z,3.00
2023-04-26T10:27:54.645Z,5.70
2023-04-26T10:30:24.770Z,5.07
2023-04-26T10:33:18.065Z,4.23
2023-04-26T10:36:07.104Z,4.77
2023-04-26T10:38:39.484Z,5.30
2023-04-26T10:41:35.105Z,5.13
2023-04-26T10:44:37.957Z,4.23
2023-04-26T10:47:08.768Z,6.77
2023-04-26T10:49:48.720Z,3.50
2023-04-26T10:52:20.630Z,5.73
2023-04-26T10:54:56.768Z,6.13
2023-04-26T10:57:42.158Z,5.50
2023-04-26T11:00:32.829Z,6.13
2023-04-26T11:03:09.118Z,5.77
2023-04-26T11:05:42.306Z,5.83
2023-04-26T11:08:18.625Z,7.57
2023-04-26T11:10:54.388Z,3.67
2023-04-26T11:13:23.832Z,4.20
2023-04-26T11:16:03.148Z,6.47
2023-04-26T11:18:32.752Z,6.60
2023-04-26T11:21:02.347Z,7.30
2023-04-26T11:23:32.906Z,5.40
2023-04-26T11:26:05.608Z,4.67
2023-04-26T11:28:36.238Z,6.23
2023-04-26T11:31:06.619Z,4.27
2023-04-26T11:33:35.874Z,4.93
2023-04-26T11:36:06.053Z,7.80
2023-04-26T11:38:35.577Z,4.53
2023-04-26T11:41:06.851Z,4.43
2023-04-26T11:43:40.294Z,16.50
2023-04-26T11:46:10.553Z,7.20
2023-04-26T11:48:41.168Z,3.60
2023-04-26T11:51:12.222Z,9.30
2023-04-26T11:53:43.199Z,6.23
2023-04-26T11:56:18.322Z,4.73
2023-04-26T11:58:49.800Z,3.73
2023-04-26T12:01:23.872Z,7.27
2023-04-26T12:03:54.624Z,3.83
2023-04-26T12:06:30.879Z,6.10
2023-04-26T12:09:02.973Z,9.73
2023-04-26T12:11:33.649Z,6.10
2023-04-26T12:14:03.840Z,3.90
2023-04-26T12:16:33.662Z,5.20
2023-04-26T12:19:07.921Z,5.97
2023-04-26T12:21:43.042Z,7.17
2023-04-26T12:24:27.681Z,5.37
2023-04-26T12:27:00.312Z,2.77
2023-04-26T12:29:32.215Z,4.53
2023-04-26T12:32:02.349Z,4.27
2023-04-26T12:34:31.990Z,5.57
2023-04-26T12:37:01.561Z,8.13
2023-04-26T12:39:31.355Z,4.63
2023-04-26T12:42:02.313Z,5.77
2023-04-26T12:44:31.808Z,5.83
2023-04-26T12:47:11.807Z,4.97
2023-04-26T12:49:59.781Z,6.37
2023-04-26T12:55:36.694Z,5.23
2023-04-26T12:58:07.448Z,5.53
2023-04-26T13:00:36.779Z,6.30
2023-04-26T13:03:06.619Z,3.63
2023-04-26T13:05:36.141Z,6.40
2023-04-26T13:08:05.966Z,4.00
2023-04-26T13:10:35.492Z,5.17
2023-04-26T13:13:06.535Z,5.23
2023-04-26T13:15:36.194Z,4.97
2023-04-26T13:18:06.381Z,4.87
2023-04-26T13:20:36.467Z,6.37
2023-04-26T13:23:05.868Z,5.97
2023-04-26T13:25:35.201Z,8.20
2023-04-26T13:28:04.763Z,5.40
2023-04-26T13:30:35.559Z,4.13
2023-04-26T13:33:05.162Z,4.80
2023-04-26T13:35:34.718Z,5.10
2023-04-26T13:38:04.365Z,3.33
2023-04-26T13:40:33.867Z,8.37
2023-04-26T13:43:03.434Z,4.80
2023-04-26T13:45:36.950Z,6.47
2023-04-26T13:48:08.306Z,3.93
2023-04-26T13:50:38.022Z,5.87
2023-04-26T13:53:07.700Z,6.27
2023-04-26T13:55:37.302Z,6.17
2023-04-26T13:58:06.842Z,3.67
2023-04-26T14:00:36.304Z,2.67
2023-04-26T14:03:07.624Z,4.93
2023-04-26T14:05:37.284Z,2.90
2023-04-26T14:08:06.682Z,5.80
2023-04-26T14:10:36.135Z,5.77
2023-04-26T14:13:05.730Z,5.17
2023-04-26T14:15:35.011Z,5.00
2023-04-26T14:18:04.425Z,10.17
2023-04-26T14:20:35.206Z,5.17
2023-04-26T14:23:04.399Z,5.73
2023-04-26T14:25:34.296Z,4.80
2023-04-26T14:28:04.424Z,7.00
2023-04-26T14:30:33.640Z,5.50
2023-04-26T14:33:03.268Z,5.33
2023-04-26T14:35:32.602Z,4.50
2023-04-26T14:38:03.408Z,5.43
2023-04-26T14:40:32.718Z,6.77
2023-04-26T14:43:02.809Z,4.20
2023-04-26T14:45:44.064Z,7.47
2023-04-26T14:48:14.416Z,4.40
2023-04-26T14:50:43.934Z,5.20
2023-04-26T14:53:14.542Z,4.37
2023-04-26T14:55:43.783Z,5.30
2023-04-26T14:58:13.090Z,7.87
2023-04-26T15:00:43.398Z,4.23
2023-04-26T15:03:12.909Z,6.27
2023-04-26T15:05:42.599Z,7.27
2023-04-26T15:08:11.984Z,9.20
2023-04-26T15:10:42.683Z,6.10
2023-04-26T15:13:12.459Z,5.00
2023-04-26T15:15:42.088Z,6.80
2023-04-26T15:18:11.535Z,5.50
2023-04-26T15:20:41.969Z,8.30
2023-04-26T15:23:11.330Z,9.27
2023-04-26T15:25:42.599Z,3.47
2023-04-26T15:28:11.919Z,7.30
2023-04-26T15:30:41.421Z,5.13
2023-04-26T15:33:13.115Z,7.57
2023-04-26T15:35:42.721Z,8.03
2023-04-26T15:38:12.072Z,8.47
2023-04-26T15:40:43.456Z,6.60
2023-04-26T15:43:13.039Z,6.20
2023-04-26T15:45:42.460Z,7.90
2023-04-26T15:48:13.716Z,5.53
2023-04-26T15:50:43.423Z,4.57
2023-04-26T15:53:12.877Z,5.83
2023-04-26T15:55:43.808Z,7.53
2023-04-26T15:58:13.522Z,7.00
2023-04-26T16:00:42.920Z,5.30
2023-04-26T16:03:12.166Z,5.23
2023-04-26T16:05:41.648Z,5.13
2023-04-26T16:08:10.830Z,4.30
2023-04-26T16:10:40.393Z,5.23
2023-04-26T16:13:11.216Z,7.30
2023-04-26T16:15:40.469Z,6.10
2023-04-26T16:18:10.173Z,6.27
2023-04-26T16:20:39.652Z,5.03
2023-04-26T16:23:08.985Z,9.37
2023-04-26T16:25:38.979Z,6.90
2023-04-26T16:28:10.087Z,6.13
2023-04-26T16:30:42.680Z,6.03
2023-04-26T16:33:12.070Z,5.73
2023-04-26T16:35:41.420Z,5.50
2023-04-26T16:38:10.910Z,4.10
2023-04-26T16:40:40.225Z,7.00
2023-04-26T16:43:12.688Z,10.17
2023-04-26T16:45:43.598Z,10.83
2023-04-26T16:48:13.203Z,5.67
2023-04-26T16:50:42.734Z,7.03
2023-04-26T16:53:14.191Z,6.07
2023-04-26T16:55:43.982Z,6.27
2023-04-26T16:58:13.462Z,5.97
2023-04-26T17:00:51.713Z,5.13
2023-04-26T17:03:21.960Z,5.03
2023-04-26T17:06:00.516Z,7.63
2023-04-26T17:08:35.206Z,7.33
2023-04-26T17:11:06.007Z,5.03
2023-04-26T17:13:35.374Z,7.20
2023-04-26T17:16:06.797Z,5.00
2023-04-26T17:18:36.774Z,7.93
2023-04-26T17:21:07.313Z,4.73
2023-04-26T17:23:36.779Z,8.00
2023-04-26T17:26:06.755Z,4.90
2023-04-26T17:28:40.097Z,8.53
2023-04-26T17:31:14.095Z,5.20
2023-04-26T17:33:44.210Z,7.10
2023-04-26T17:36:14.444Z,6.90
2023-04-26T17:38:44.832Z,5.03
2023-04-26T17:41:14.834Z,5.67
2023-04-26T17:43:44.840Z,4.13
2023-04-26T17:46:15.850Z,4.60
2023-04-26T17:48:46.060Z,6.50
2023-04-26T17:51:16.006Z,6.33
2023-04-26T17:53:46.054Z,7.93
2023-04-26T17:56:16.503Z,6.67
2023-04-26T17:58:46.230Z,11.77
2023-04-26T18:01:17.777Z,6.33
2023-04-26T18:03:47.620Z,6.00
2023-04-26T18:06:18.490Z,6.57
2023-04-26T18:08:49.565Z,6.60
2023-04-26T18:11:21.081Z,5.67
2023-04-26T18:13:51.321Z,9.97
2023-04-26T18:16:22.406Z,5.60
2023-04-26T18:18:52.219Z,7.53
2023-04-26T18:21:22.182Z,9.63
2023-04-26T18:23:52.574Z,6.53
2023-04-26T18:26:23.407Z,6.23
2023-04-26T18:28:53.340Z,6.60
2023-04-26T18:31:24.591Z,6.33
2023-04-26T18:33:54.170Z,7.13
2023-04-26T18:36:23.735Z,4.63
2023-04-26T18:38:52.992Z,5.50
2023-04-26T18:41:24.432Z,5.80
2023-04-26T18:43:55.169Z,7.77
2023-04-26T18:46:27.441Z,7.47
2023-04-26T18:48:58.031Z,6.40
2023-04-26T18:51:29.008Z,7.07
2023-04-26T18:53:59.518Z,7.03
2023-04-26T18:56:30.767Z,7.40
2023-04-26T18:59:01.052Z,9.07
2023-04-26T19:01:34.606Z,5.73
2023-04-26T19:04:05.552Z,5.00
2023-04-26T19:06:35.765Z,4.57
2023-04-26T19:09:12.681Z,7.67
2023-04-26T19:11:46.623Z,5.27
2023-04-26T19:14:17.514Z,6.83
2023-04-26T19:16:49.606Z,9.40
2023-04-26T19:19:19.940Z,6.50
2023-04-26T19:21:52.653Z,6.63
2023-04-26T19:24:22.987Z,10.43
2023-04-26T19:26:53.919Z,6.10
2023-04-26T19:29:25.408Z,6.50
2023-04-26T19:32:00.871Z,5.40
2023-04-26T19:34:33.046Z,7.67
2023-04-26T19:37:04.323Z,5.27
2023-04-26T19:39:35.242Z,6.27
2023-04-26T19:42:06.053Z,7.50
2023-04-26T19:44:36.938Z,7.23
2023-04-26T19:47:10.524Z,7.10
2023-04-26T19:49:40.895Z,7.70
2023-04-26T19:52:12.277Z,7.80
2023-04-26T19:54:44.650Z,7.03
2023-04-26T19:57:16.273Z,6.87
2023-04-26T19:59:46.904Z,10.07
2023-04-26T20:02:18.814Z,9.73
2023-04-26T20:04:49.421Z,6.27
2023-04-26T20:07:19.340Z,6.33
2023-04-26T20:09:49.653Z,7.43
2023-04-26T20:12:21.203Z,8.23
2023-04-26T20:14:51.705Z,8.13
2023-04-26T20:17:23.569Z,10.43
2023-04-26T20:19:53.494Z,12.27
2023-04-26T20:22:23.528Z,12.13
2023-04-26T20:24:54.334Z,9.60
2023-04-26T20:27:26.933Z,11.70
2023-04-26T20:29:56.902Z,10.47
2023-04-26T20:32:28.676Z,7.90
2023-04-26T20:34:59.570Z,11.33
2023-04-26T20:37:29.490Z,10.83
2023-04-26T20:39:59.303Z,12.10
2023-04-26T20:42:29.055Z,10.20
2023-04-26T20:44:59.874Z,11.33
2023-04-26T20:47:34.520Z,11.00
2023-04-26T20:50:04.152Z,12.87
2023-04-26T20:52:33.430Z,12.03
2023-04-26T20:55:03.546Z,15.27
2023-04-26T20:57:33.465Z,12.50
2023-04-26T21:00:03.150Z,13.80
2023-04-26T21:02:34.532Z,10.03
2023-04-26T21:05:04.690Z,13.43
2023-04-26T21:07:34.336Z,11.83
2023-04-26T21:10:04.231Z,11.27
2023-04-26T21:12:34.511Z,12.43
2023-04-26T21:15:04.240Z,13.37
2023-04-26T21:17:35.572Z,15.77
2023-04-26T21:20:05.500Z,14.37
2023-04-26T21:22:34.775Z,14.30
2023-04-26T21:25:04.708Z,15.07
2023-04-26T21:27:34.044Z,14.20
2023-04-26T21:30:03.326Z,12.20
2023-04-26T21:32:34.017Z,12.50
2023-04-26T21:35:03.149Z,13.97
2023-04-26T21:37:32.529Z,14.03
2023-04-26T21:40:01.748Z,13.87
2023-04-26T21:42:30.953Z,13.70
2023-04-26T21:45:00.230Z,14.10
2023-04-26T21:47:29.359Z,12.50
2023-04-26T21:50:00.200Z,12.97
2023-04-26T21:52:29.429Z,11.17
2023-04-26T21:54:59.614Z,13.37
2023-04-26T21:57:29.688Z,11.60
2023-04-26T21:59:59.613Z,12.93
2023-04-26T22:02:29.252Z,11.63
2023-04-26T22:04:59.945Z,13.60
2023-04-26T22:07:29.116Z,12.50
2023-04-26T22:09:58.622Z,10.53
2023-04-26T22:12:27.878Z,10.50
2023-04-26T22:14:57.139Z,13.63
2023-04-26T22:17:26.761Z,13.87
2023-04-26T22:19:56.134Z,9.63
2023-04-26T22:22:26.900Z,12.27
2023-04-26T22:24:56.128Z,9.57
2023-04-26T22:27:25.307Z,8.83
2023-04-26T22:29:54.523Z,12.27
2023-04-26T22:32:23.859Z,12.47
2023-04-26T22:34:53.002Z,10.50
2023-04-26T22:37:23.083Z,12.13
2023-04-26T22:39:53.877Z,13.40
2023-04-26T22:42:23.127Z,11.47
2023-04-26T22:44:52.459Z,13.20
2023-04-26T22:47:23.226Z,10.40
2023-04-26T22:49:52.637Z,11.47
2023-04-26T22:52:30.902Z,14.57
2023-04-26T22:55:02.923Z,10.97
2023-04-26T22:57:32.457Z,7.90
2023-04-26T23:00:01.729Z,11.07
2023-04-26T23:02:31.133Z,9.63
2023-04-26T23:05:00.417Z,12.33
2023-04-26T23:07:29.988Z,10.40
2023-04-26T23:09:59.518Z,10.40
2023-04-26T23:12:31.479Z,10.73
2023-04-26T23:15:01.080Z,9.23
2023-04-26T23:17:30.462Z,8.30
2023-04-26T23:20:00.363Z,15.23
2023-04-26T23:22:29.754Z,11.23
2023-04-26T23:24:59.223Z,10.50
2023-04-26T23:27:29.993Z,7.87
2023-04-26T23:30:00.174Z,12.17
2023-04-26T23:32:29.931Z,7.93
2023-04-26T23:34:59.334Z,7.37
2023-04-26T23:37:28.557Z,7.50
2023-04-26T23:39:57.724Z,9.67
2023-04-26T23:42:27.167Z,12.93
2023-04-26T23:44:58.131Z,8.60
2023-04-26T23:47:27.656Z,10.60
2023-04-26T23:49:56.921Z,11.87
2023-04-26T23:52:26.353Z,10.13
2023-04-26T23:54:55.587Z,10.33
2023-04-26T23:57:24.804Z,10.53
2023-04-26T23:59:54.043Z,11.40
